sensor_id;sensor_type;location;lat;lon;timestamp;P1;durP1;ratioP1;P2;durP2;ratioP2
34805;SDS011;65084;42.196;25.326;2023-02-12T00:00:42;122.72;;;45.33;;
34805;SDS011;65084;42.196;25.326;2023-02-12T00:03:09;102.20;;;38.97;;
34805;SDS011;65084;42.196;25.326;2023-02-12T00:05:37;96.97;;;37.08;;
34805;SDS011;65084;42.196;25.326;2023-02-12T00:08:05;87.63;;;34.80;;
34805;SDS011;65084;42.196;25.326;2023-02-12T00:10:33;93.90;;;35.47;;
34805;SDS011;65084;42.196;25.326;2023-02-12T00:13:00;91.63;;;35.17;;
34805;SDS011;65084;42.196;25.326;2023-02-12T00:15:27;85.75;;;33.03;;
34805;SDS011;65084;42.196;25.326;2023-02-12T00:17:56;79.30;;;30.20;;
34805;SDS011;65084;42.196;25.326;2023-02-12T00:20:23;77.35;;;30.73;;
34805;SDS011;65084;42.196;25.326;2023-02-12T00:22:51;76.63;;;30.95;;
34805;SDS011;65084;42.196;25.326;2023-02-12T00:25:18;65.85;;;28.25;;
34805;SDS011;65084;42.196;25.326;2023-02-12T00:27:45;68.35;;;26.92;;
34805;SDS011;65084;42.196;25.326;2023-02-12T00:30:13;64.95;;;29.10;;
34805;SDS011;65084;42.196;25.326;2023-02-12T00:32:40;62.65;;;26.65;;
34805;SDS011;65084;42.196;25.326;2023-02-12T00:35:08;71.95;;;28.95;;
34805;SDS011;65084;42.196;25.326;2023-02-12T00:37:36;64.10;;;27.63;;
34805;SDS011;65084;42.196;25.326;2023-02-12T00:40:03;60.58;;;27.40;;
34805;SDS011;65084;42.196;25.326;2023-02-12T00:42:31;65.53;;;26.45;;
34805;SDS011;65084;42.196;25.326;2023-02-12T00:44:58;81.70;;;27.75;;
34805;SDS011;65084;42.196;25.326;2023-02-12T00:47:25;75.53;;;25.45;;
34805;SDS011;65084;42.196;25.326;2023-02-12T00:49:52;63.35;;;27.17;;
34805;SDS011;65084;42.196;25.326;2023-02-12T00:52:21;64.60;;;26.02;;
34805;SDS011;65084;42.196;25.326;2023-02-12T00:54:48;55.83;;;24.02;;
34805;SDS011;65084;42.196;25.326;2023-02-12T00:57:16;55.08;;;22.88;;
34805;SDS011;65084;42.196;25.326;2023-02-12T00:59:43;45.47;;;18.52;;
34805;SDS011;65084;42.196;25.326;2023-02-12T01:02:10;47.40;;;18.50;;
34805;SDS011;65084;42.196;25.326;2023-02-12T01:04:37;46.00;;;17.95;;
34805;SDS011;65084;42.196;25.326;2023-02-12T01:07:05;43.58;;;17.17;;
34805;SDS011;65084;42.196;25.326;2023-02-12T01:09:33;32.20;;;14.60;;
34805;SDS011;65084;42.196;25.326;2023-02-12T01:12:01;33.05;;;14.70;;
34805;SDS011;65084;42.196;25.326;2023-02-12T01:14:28;29.83;;;13.02;;
34805;SDS011;65084;42.196;25.326;2023-02-12T01:16:55;26.90;;;11.50;;
34805;SDS011;65084;42.196;25.326;2023-02-12T01:19:22;26.90;;;11.65;;
34805;SDS011;65084;42.196;25.326;2023-02-12T01:21:50;33.63;;;14.32;;
34805;SDS011;65084;42.196;25.326;2023-02-12T01:24:17;30.00;;;13.73;;
34805;SDS011;65084;42.196;25.326;2023-02-12T01:26:46;30.45;;;12.65;;
34805;SDS011;65084;42.196;25.326;2023-02-12T01:29:13;28.48;;;11.93;;
34805;SDS011;65084;42.196;25.326;2023-02-12T01:31:40;26.67;;;10.88;;
34805;SDS011;65084;42.196;25.326;2023-02-12T01:34:08;24.98;;;11.15;;
34805;SDS011;65084;42.196;25.326;2023-02-12T01:36:36;31.80;;;13.48;;
34805;SDS011;65084;42.196;25.326;2023-02-12T01:39:04;40.65;;;14.27;;
34805;SDS011;65084;42.196;25.326;2023-02-12T01:41:32;36.42;;;13.40;;
34805;SDS011;65084;42.196;25.326;2023-02-12T01:44:09;30.67;;;13.10;;
34805;SDS011;65084;42.196;25.326;2023-02-12T01:46:37;26.30;;;12.65;;
34805;SDS011;65084;42.196;25.326;2023-02-12T01:49:05;28.52;;;13.05;;
34805;SDS011;65084;42.196;25.326;2023-02-12T01:51:33;23.67;;;12.13;;
34805;SDS011;65084;42.196;25.326;2023-02-12T01:54:01;28.15;;;12.18;;
34805;SDS011;65084;42.196;25.326;2023-02-12T01:56:30;30.50;;;11.45;;
34805;SDS011;65084;42.196;25.326;2023-02-12T01:58:57;25.83;;;11.38;;
34805;SDS011;65084;42.196;25.326;2023-02-12T02:01:26;25.30;;;10.73;;
34805;SDS011;65084;42.196;25.326;2023-02-12T02:03:54;21.92;;;11.38;;
34805;SDS011;65084;42.196;25.326;2023-02-12T02:06:24;24.23;;;11.38;;
34805;SDS011;65084;42.196;25.326;2023-02-12T02:08:52;39.40;;;16.15;;
34805;SDS011;65084;42.196;25.326;2023-02-12T02:11:21;35.35;;;14.77;;
34805;SDS011;65084;42.196;25.326;2023-02-12T02:14:06;31.35;;;13.88;;
34805;SDS011;65084;42.196;25.326;2023-02-12T02:16:56;32.00;;;13.30;;
34805;SDS011;65084;42.196;25.326;2023-02-12T02:19:30;30.98;;;14.10;;
34805;SDS011;65084;42.196;25.326;2023-02-12T02:24:37;39.00;;;15.15;;
34805;SDS011;65084;42.196;25.326;2023-02-12T02:27:14;32.42;;;12.85;;
34805;SDS011;65084;42.196;25.326;2023-02-12T02:32:29;23.15;;;11.20;;
34805;SDS011;65084;42.196;25.326;2023-02-12T02:34:58;28.50;;;11.25;;
34805;SDS011;65084;42.196;25.326;2023-02-12T02:37:29;25.52;;;11.48;;
34805;SDS011;65084;42.196;25.326;2023-02-12T02:39:58;26.55;;;12.40;;
34805;SDS011;65084;42.196;25.326;2023-02-12T02:42:26;22.83;;;11.02;;
34805;SDS011;65084;42.196;25.326;2023-02-12T02:44:57;27.67;;;12.27;;
34805;SDS011;65084;42.196;25.326;2023-02-12T02:47:28;30.38;;;13.50;;
34805;SDS011;65084;42.196;25.326;2023-02-12T02:50:00;29.52;;;13.70;;
34805;SDS011;65084;42.196;25.326;2023-02-12T02:52:31;28.25;;;12.88;;
34805;SDS011;65084;42.196;25.326;2023-02-12T02:55:00;25.42;;;11.85;;
34805;SDS011;65084;42.196;25.326;2023-02-12T02:57:29;25.08;;;12.43;;
34805;SDS011;65084;42.196;25.326;2023-02-12T02:59:59;29.33;;;13.10;;
34805;SDS011;65084;42.196;25.326;2023-02-12T03:02:29;26.90;;;12.95;;
34805;SDS011;65084;42.196;25.326;2023-02-12T03:05:00;29.58;;;12.85;;
34805;SDS011;65084;42.196;25.326;2023-02-12T03:07:30;28.77;;;13.60;;
34805;SDS011;65084;42.196;25.326;2023-02-12T03:10:00;30.88;;;14.23;;
34805;SDS011;65084;42.196;25.326;2023-02-12T03:12:30;35.50;;;17.27;;
34805;SDS011;65084;42.196;25.326;2023-02-12T03:14:58;35.47;;;17.05;;
34805;SDS011;65084;42.196;25.326;2023-02-12T03:17:28;26.48;;;11.23;;
34805;SDS011;65084;42.196;25.326;2023-02-12T03:19:58;24.48;;;12.13;;
34805;SDS011;65084;42.196;25.326;2023-02-12T03:22:29;26.23;;;11.82;;
34805;SDS011;65084;42.196;25.326;2023-02-12T03:24:57;24.63;;;10.88;;
34805;SDS011;65084;42.196;25.326;2023-02-12T03:27:29;25.60;;;12.27;;
34805;SDS011;65084;42.196;25.326;2023-02-12T03:29:57;23.67;;;12.05;;
34805;SDS011;65084;42.196;25.326;2023-02-12T03:32:27;26.50;;;12.30;;
34805;SDS011;65084;42.196;25.326;2023-02-12T03:35:00;25.60;;;11.90;;
34805;SDS011;65084;42.196;25.326;2023-02-12T03:37:32;25.67;;;11.75;;
34805;SDS011;65084;42.196;25.326;2023-02-12T03:40:02;29.23;;;12.65;;
34805;SDS011;65084;42.196;25.326;2023-02-12T03:42:34;29.30;;;12.63;;
34805;SDS011;65084;42.196;25.326;2023-02-12T03:45:05;23.92;;;11.68;;
34805;SDS011;65084;42.196;25.326;2023-02-12T03:47:37;22.17;;;10.77;;
34805;SDS011;65084;42.196;25.326;2023-02-12T03:50:06;24.92;;;12.50;;
34805;SDS011;65084;42.196;25.326;2023-02-12T03:52:36;33.53;;;14.70;;
34805;SDS011;65084;42.196;25.326;2023-02-12T03:55:04;33.63;;;14.38;;
34805;SDS011;65084;42.196;25.326;2023-02-12T03:57:33;33.95;;;15.38;;
34805;SDS011;65084;42.196;25.326;2023-02-12T04:00:04;24.13;;;12.38;;
34805;SDS011;65084;42.196;25.326;2023-02-12T04:02:32;26.08;;;10.75;;
34805;SDS011;65084;42.196;25.326;2023-02-12T04:05:02;23.38;;;11.25;;
34805;SDS011;65084;42.196;25.326;2023-02-12T04:07:30;22.23;;;10.73;;
34805;SDS011;65084;42.196;25.326;2023-02-12T04:09:58;20.48;;;10.30;;
34805;SDS011;65084;42.196;25.326;2023-02-12T04:12:30;21.70;;;10.25;;
34805;SDS011;65084;42.196;25.326;2023-02-12T04:15:10;19.17;;;9.27;;
34805;SDS011;65084;42.196;25.326;2023-02-12T04:17:43;24.50;;;10.80;;
34805;SDS011;65084;42.196;25.326;2023-02-12T04:20:15;24.25;;;11.00;;
34805;SDS011;65084;42.196;25.326;2023-02-12T04:22:48;20.92;;;10.93;;
34805;SDS011;65084;42.196;25.326;2023-02-12T04:25:24;24.23;;;11.82;;
34805;SDS011;65084;42.196;25.326;2023-02-12T04:27:58;25.08;;;11.82;;
34805;SDS011;65084;42.196;25.326;2023-02-12T04:30:27;22.67;;;11.73;;
34805;SDS011;65084;42.196;25.326;2023-02-12T04:32:58;21.55;;;11.50;;
34805;SDS011;65084;42.196;25.326;2023-02-12T04:35:27;27.33;;;12.55;;
34805;SDS011;65084;42.196;25.326;2023-02-12T04:37:58;24.38;;;11.35;;
34805;SDS011;65084;42.196;25.326;2023-02-12T04:40:29;23.00;;;11.70;;
34805;SDS011;65084;42.196;25.326;2023-02-12T04:42:56;26.52;;;12.73;;
34805;SDS011;65084;42.196;25.326;2023-02-12T04:45:25;25.92;;;11.90;;
34805;SDS011;65084;42.196;25.326;2023-02-12T04:47:52;26.88;;;12.57;;
34805;SDS011;65084;42.196;25.326;2023-02-12T04:50:20;32.20;;;14.65;;
34805;SDS011;65084;42.196;25.326;2023-02-12T04:52:47;33.90;;;14.02;;
34805;SDS011;65084;42.196;25.326;2023-02-12T04:55:15;30.75;;;13.65;;
34805;SDS011;65084;42.196;25.326;2023-02-12T04:57:43;28.35;;;13.75;;
34805;SDS011;65084;42.196;25.326;2023-02-12T05:00:11;31.85;;;14.73;;
34805;SDS011;65084;42.196;25.326;2023-02-12T05:02:39;30.00;;;13.50;;
34805;SDS011;65084;42.196;25.326;2023-02-12T05:05:07;33.28;;;14.32;;
34805;SDS011;65084;42.196;25.326;2023-02-12T05:07:34;31.17;;;13.27;;
34805;SDS011;65084;42.196;25.326;2023-02-12T05:10:01;32.15;;;13.27;;
34805;SDS011;65084;42.196;25.326;2023-02-12T05:12:29;23.13;;;11.88;;
34805;SDS011;65084;42.196;25.326;2023-02-12T05:14:57;27.35;;;11.90;;
34805;SDS011;65084;42.196;25.326;2023-02-12T05:17:24;23.38;;;11.13;;
34805;SDS011;65084;42.196;25.326;2023-02-12T05:19:52;24.27;;;11.77;;
34805;SDS011;65084;42.196;25.326;2023-02-12T05:22:19;26.40;;;11.30;;
34805;SDS011;65084;42.196;25.326;2023-02-12T05:24:47;24.65;;;11.55;;
34805;SDS011;65084;42.196;25.326;2023-02-12T05:27:14;26.67;;;11.52;;
34805;SDS011;65084;42.196;25.326;2023-02-12T05:29:41;22.95;;;10.85;;
34805;SDS011;65084;42.196;25.326;2023-02-12T05:32:10;24.48;;;11.48;;
34805;SDS011;65084;42.196;25.326;2023-02-12T05:34:37;22.25;;;11.57;;
34805;SDS011;65084;42.196;25.326;2023-02-12T05:37:05;22.35;;;11.25;;
34805;SDS011;65084;42.196;25.326;2023-02-12T05:39:32;23.98;;;12.13;;
34805;SDS011;65084;42.196;25.326;2023-02-12T05:41:59;28.55;;;12.52;;
34805;SDS011;65084;42.196;25.326;2023-02-12T05:44:27;25.10;;;11.93;;
34805;SDS011;65084;42.196;25.326;2023-02-12T05:46:54;26.13;;;12.98;;
34805;SDS011;65084;42.196;25.326;2023-02-12T05:49:23;34.72;;;14.45;;
34805;SDS011;65084;42.196;25.326;2023-02-12T05:51:50;38.90;;;16.75;;
34805;SDS011;65084;42.196;25.326;2023-02-12T05:54:17;30.80;;;15.02;;
34805;SDS011;65084;42.196;25.326;2023-02-12T05:56:45;27.83;;;13.88;;
34805;SDS011;65084;42.196;25.326;2023-02-12T05:59:14;31.63;;;14.95;;
34805;SDS011;65084;42.196;25.326;2023-02-12T06:01:42;32.85;;;15.40;;
34805;SDS011;65084;42.196;25.326;2023-02-12T06:04:12;35.65;;;16.30;;
34805;SDS011;65084;42.196;25.326;2023-02-12T06:06:41;30.85;;;15.07;;
34805;SDS011;65084;42.196;25.326;2023-02-12T06:09:08;29.25;;;14.93;;
34805;SDS011;65084;42.196;25.326;2023-02-12T06:11:36;29.90;;;15.00;;
34805;SDS011;65084;42.196;25.326;2023-02-12T06:14:04;34.53;;;14.85;;
34805;SDS011;65084;42.196;25.326;2023-02-12T06:16:31;31.63;;;13.50;;
34805;SDS011;65084;42.196;25.326;2023-02-12T06:19:00;28.65;;;15.10;;
34805;SDS011;65084;42.196;25.326;2023-02-12T06:21:27;34.75;;;15.55;;
34805;SDS011;65084;42.196;25.326;2023-02-12T06:23:56;37.22;;;16.25;;
34805;SDS011;65084;42.196;25.326;2023-02-12T06:26:24;33.55;;;16.77;;
34805;SDS011;65084;42.196;25.326;2023-02-12T06:28:51;38.40;;;17.70;;
34805;SDS011;65084;42.196;25.326;2023-02-12T06:31:20;37.10;;;18.42;;
34805;SDS011;65084;42.196;25.326;2023-02-12T06:33:48;34.35;;;16.65;;
34805;SDS011;65084;42.196;25.326;2023-02-12T06:36:15;35.80;;;17.15;;
34805;SDS011;65084;42.196;25.326;2023-02-12T06:38:42;36.25;;;17.95;;
34805;SDS011;65084;42.196;25.326;2023-02-12T06:41:11;42.03;;;21.70;;
34805;SDS011;65084;42.196;25.326;2023-02-12T06:43:38;59.47;;;25.90;;
34805;SDS011;65084;42.196;25.326;2023-02-12T06:46:06;57.30;;;26.33;;
34805;SDS011;65084;42.196;25.326;2023-02-12T06:48:33;58.30;;;24.40;;
34805;SDS011;65084;42.196;25.326;2023-02-12T06:51:05;48.38;;;21.67;;
34805;SDS011;65084;42.196;25.326;2023-02-12T06:53:33;48.15;;;23.30;;
34805;SDS011;65084;42.196;25.326;2023-02-12T06:56:00;53.75;;;24.52;;
34805;SDS011;65084;42.196;25.326;2023-02-12T06:58:29;72.60;;;31.13;;
34805;SDS011;65084;42.196;25.326;2023-02-12T07:00:56;83.90;;;33.13;;
34805;SDS011;65084;42.196;25.326;2023-02-12T07:03:34;71.65;;;30.40;;
34805;SDS011;65084;42.196;25.326;2023-02-12T07:06:03;60.78;;;26.00;;
34805;SDS011;65084;42.196;25.326;2023-02-12T07:08:31;37.42;;;17.73;;
34805;SDS011;65084;42.196;25.326;2023-02-12T07:10:58;34.42;;;16.38;;
34805;SDS011;65084;42.196;25.326;2023-02-12T07:13:25;33.47;;;17.65;;
34805;SDS011;65084;42.196;25.326;2023-02-12T07:15:54;43.13;;;19.20;;
34805;SDS011;65084;42.196;25.326;2023-02-12T07:18:21;90.22;;;34.85;;
34805;SDS011;65084;42.196;25.326;2023-02-12T07:20:48;84.65;;;34.85;;
34805;SDS011;65084;42.196;25.326;2023-02-12T07:23:16;51.03;;;23.08;;
34805;SDS011;65084;42.196;25.326;2023-02-12T07:25:43;41.47;;;19.25;;
34805;SDS011;65084;42.196;25.326;2023-02-12T07:28:10;46.67;;;19.90;;
34805;SDS011;65084;42.196;25.326;2023-02-12T07:30:37;39.28;;;19.85;;
34805;SDS011;65084;42.196;25.326;2023-02-12T07:33:06;38.47;;;18.95;;
34805;SDS011;65084;42.196;25.326;2023-02-12T07:35:33;40.10;;;17.27;;
34805;SDS011;65084;42.196;25.326;2023-02-12T07:38:00;60.83;;;26.50;;
34805;SDS011;65084;42.196;25.326;2023-02-12T07:40:28;100.40;;;47.97;;
34805;SDS011;65084;42.196;25.326;2023-02-12T07:42:55;49.70;;;23.50;;
34805;SDS011;65084;42.196;25.326;2023-02-12T07:45:22;37.30;;;20.40;;
34805;SDS011;65084;42.196;25.326;2023-02-12T07:47:50;51.00;;;25.38;;
34805;SDS011;65084;42.196;25.326;2023-02-12T07:50:18;63.08;;;29.55;;
34805;SDS011;65084;42.196;25.326;2023-02-12T07:52:47;60.03;;;26.85;;
34805;SDS011;65084;42.196;25.326;2023-02-12T07:55:15;54.58;;;25.77;;
34805;SDS011;65084;42.196;25.326;2023-02-12T07:57:43;47.17;;;23.23;;
34805;SDS011;65084;42.196;25.326;2023-02-12T08:00:10;41.63;;;21.25;;
34805;SDS011;65084;42.196;25.326;2023-02-12T08:02:38;49.05;;;22.73;;
34805;SDS011;65084;42.196;25.326;2023-02-12T08:05:05;47.78;;;21.95;;
34805;SDS011;65084;42.196;25.326;2023-02-12T08:07:34;46.45;;;21.77;;
34805;SDS011;65084;42.196;25.326;2023-02-12T08:10:01;52.05;;;22.70;;
34805;SDS011;65084;42.196;25.326;2023-02-12T08:12:29;40.20;;;20.48;;
34805;SDS011;65084;42.196;25.326;2023-02-12T08:14:56;30.10;;;16.40;;
34805;SDS011;65084;42.196;25.326;2023-02-12T08:17:23;26.85;;;16.13;;
34805;SDS011;65084;42.196;25.326;2023-02-12T08:19:51;30.60;;;16.33;;
34805;SDS011;65084;42.196;25.326;2023-02-12T08:22:18;29.27;;;15.25;;
34805;SDS011;65084;42.196;25.326;2023-02-12T08:24:47;54.35;;;29.55;;
34805;SDS011;65084;42.196;25.326;2023-02-12T08:27:14;31.67;;;14.93;;
34805;SDS011;65084;42.196;25.326;2023-02-12T08:29:41;28.52;;;14.98;;
34805;SDS011;65084;42.196;25.326;2023-02-12T08:32:09;40.88;;;19.70;;
34805;SDS011;65084;42.196;25.326;2023-02-12T08:34:38;39.22;;;18.65;;
34805;SDS011;65084;42.196;25.326;2023-02-12T08:37:05;45.72;;;22.85;;
34805;SDS011;65084;42.196;25.326;2023-02-12T08:39:32;49.92;;;21.42;;
34805;SDS011;65084;42.196;25.326;2023-02-12T08:42:01;42.53;;;19.30;;
34805;SDS011;65084;42.196;25.326;2023-02-12T08:44:29;36.83;;;18.98;;
34805;SDS011;65084;42.196;25.326;2023-02-12T08:46:56;33.97;;;17.50;;
34805;SDS011;65084;42.196;25.326;2023-02-12T08:49:24;31.63;;;16.77;;
34805;SDS011;65084;42.196;25.326;2023-02-12T08:51:52;32.85;;;16.25;;
34805;SDS011;65084;42.196;25.326;2023-02-12T08:54:20;40.83;;;18.52;;
34805;SDS011;65084;42.196;25.326;2023-02-12T08:56:48;49.15;;;20.17;;
34805;SDS011;65084;42.196;25.326;2023-02-12T08:59:17;65.40;;;28.60;;
34805;SDS011;65084;42.196;25.326;2023-02-12T09:01:44;45.53;;;20.13;;
34805;SDS011;65084;42.196;25.326;2023-02-12T09:04:13;37.08;;;19.67;;
34805;SDS011;65084;42.196;25.326;2023-02-12T09:06:42;40.47;;;18.60;;
34805;SDS011;65084;42.196;25.326;2023-02-12T09:09:09;44.15;;;19.20;;
34805;SDS011;65084;42.196;25.326;2023-02-12T09:11:36;30.65;;;16.35;;
34805;SDS011;65084;42.196;25.326;2023-02-12T09:14:04;30.80;;;15.50;;
34805;SDS011;65084;42.196;25.326;2023-02-12T09:16:34;33.85;;;17.15;;
34805;SDS011;65084;42.196;25.326;2023-02-12T09:19:02;32.13;;;18.20;;
34805;SDS011;65084;42.196;25.326;2023-02-12T09:21:29;33.13;;;15.32;;
34805;SDS011;65084;42.196;25.326;2023-02-12T09:23:56;25.20;;;14.52;;
34805;SDS011;65084;42.196;25.326;2023-02-12T09:26:24;24.60;;;13.13;;
34805;SDS011;65084;42.196;25.326;2023-02-12T09:28:51;19.88;;;11.23;;
34805;SDS011;65084;42.196;25.326;2023-02-12T09:31:20;22.25;;;12.80;;
34805;SDS011;65084;42.196;25.326;2023-02-12T09:33:51;46.78;;;24.58;;
34805;SDS011;65084;42.196;25.326;2023-02-12T09:36:19;40.58;;;22.02;;
34805;SDS011;65084;42.196;25.326;2023-02-12T09:38:46;57.45;;;27.33;;
34805;SDS011;65084;42.196;25.326;2023-02-12T09:41:27;36.72;;;19.55;;
34805;SDS011;65084;42.196;25.326;2023-02-12T09:43:58;77.55;;;39.20;;
34805;SDS011;65084;42.196;25.326;2023-02-12T09:46:27;50.05;;;25.65;;
34805;SDS011;65084;42.196;25.326;2023-02-12T09:48:58;35.00;;;19.00;;
34805;SDS011;65084;42.196;25.326;2023-02-12T09:51:26;32.45;;;18.15;;
34805;SDS011;65084;42.196;25.326;2023-02-12T09:53:58;26.63;;;15.68;;
34805;SDS011;65084;42.196;25.326;2023-02-12T09:56:26;22.27;;;12.70;;
34805;SDS011;65084;42.196;25.326;2023-02-12T09:58:55;23.75;;;14.85;;
34805;SDS011;65084;42.196;25.326;2023-02-12T10:01:22;21.30;;;13.32;;
34805;SDS011;65084;42.196;25.326;2023-02-12T10:03:50;58.78;;;28.65;;
34805;SDS011;65084;42.196;25.326;2023-02-12T10:06:28;90.78;;;44.60;;
34805;SDS011;65084;42.196;25.326;2023-02-12T10:09:04;200.82;;;101.53;;
34805;SDS011;65084;42.196;25.326;2023-02-12T10:11:48;160.63;;;83.40;;
34805;SDS011;65084;42.196;25.326;2023-02-12T10:17:17;48.08;;;26.88;;
34805;SDS011;65084;42.196;25.326;2023-02-12T10:19:52;29.10;;;14.63;;
34805;SDS011;65084;42.196;25.326;2023-02-12T10:22:28;21.02;;;12.93;;
34805;SDS011;65084;42.196;25.326;2023-02-12T10:25:02;20.73;;;13.15;;
34805;SDS011;65084;42.196;25.326;2023-02-12T10:27:42;26.30;;;15.27;;
34805;SDS011;65084;42.196;25.326;2023-02-12T10:30:26;21.45;;;13.50;;
34805;SDS011;65084;42.196;25.326;2023-02-12T10:32:59;22.88;;;12.48;;
34805;SDS011;65084;42.196;25.326;2023-02-12T10:35:28;21.58;;;12.68;;
34805;SDS011;65084;42.196;25.326;2023-02-12T10:37:57;20.60;;;11.80;;
34805;SDS011;65084;42.196;25.326;2023-02-12T10:40:27;24.75;;;14.20;;
34805;SDS011;65084;42.196;25.326;2023-02-12T10:42:57;19.13;;;12.15;;
34805;SDS011;65084;42.196;25.326;2023-02-12T10:45:26;23.58;;;11.45;;
34805;SDS011;65084;42.196;25.326;2023-02-12T10:48:03;19.08;;;11.15;;
34805;SDS011;65084;42.196;25.326;2023-02-12T10:50:51;16.38;;;10.43;;
34805;SDS011;65084;42.196;25.326;2023-02-12T10:53:28;15.80;;;10.45;;
34805;SDS011;65084;42.196;25.326;2023-02-12T10:56:06;49.38;;;20.05;;
34805;SDS011;65084;42.196;25.326;2023-02-12T10:58:36;39.83;;;19.67;;
34805;SDS011;65084;42.196;25.326;2023-02-12T11:01:05;26.10;;;12.77;;
34805;SDS011;65084;42.196;25.326;2023-02-12T11:03:38;17.50;;;10.68;;
34805;SDS011;65084;42.196;25.326;2023-02-12T11:06:13;29.85;;;14.20;;
34805;SDS011;65084;42.196;25.326;2023-02-12T11:08:42;36.88;;;15.85;;
34805;SDS011;65084;42.196;25.326;2023-02-12T11:11:10;23.00;;;13.15;;
34805;SDS011;65084;42.196;25.326;2023-02-12T11:13:39;25.48;;;15.05;;
34805;SDS011;65084;42.196;25.326;2023-02-12T11:16:06;19.63;;;12.45;;
34805;SDS011;65084;42.196;25.326;2023-02-12T11:18:34;23.42;;;14.23;;
34805;SDS011;65084;42.196;25.326;2023-02-12T11:21:03;18.52;;;12.25;;
34805;SDS011;65084;42.196;25.326;2023-02-12T11:23:31;20.50;;;11.20;;
34805;SDS011;65084;42.196;25.326;2023-02-12T11:26:01;17.13;;;10.25;;
34805;SDS011;65084;42.196;25.326;2023-02-12T11:28:28;21.58;;;12.15;;
34805;SDS011;65084;42.196;25.326;2023-02-12T11:30:57;21.02;;;13.02;;
34805;SDS011;65084;42.196;25.326;2023-02-12T11:33:26;18.67;;;11.35;;
34805;SDS011;65084;42.196;25.326;2023-02-12T11:35:54;21.15;;;12.73;;
34805;SDS011;65084;42.196;25.326;2023-02-12T11:38:32;18.05;;;12.07;;
34805;SDS011;65084;42.196;25.326;2023-02-12T11:41:06;25.10;;;13.32;;
34805;SDS011;65084;42.196;25.326;2023-02-12T11:43:37;26.40;;;15.20;;
34805;SDS011;65084;42.196;25.326;2023-02-12T11:46:05;23.20;;;14.75;;
34805;SDS011;65084;42.196;25.326;2023-02-12T11:48:34;25.15;;;16.48;;
34805;SDS011;65084;42.196;25.326;2023-02-12T11:51:03;32.85;;;18.30;;
34805;SDS011;65084;42.196;25.326;2023-02-12T11:53:34;40.20;;;27.05;;
34805;SDS011;65084;42.196;25.326;2023-02-12T11:56:02;26.85;;;18.25;;
34805;SDS011;65084;42.196;25.326;2023-02-12T11:58:31;56.63;;;35.50;;
34805;SDS011;65084;42.196;25.326;2023-02-12T12:01:03;30.23;;;19.25;;
34805;SDS011;65084;42.196;25.326;2023-02-12T12:03:33;34.03;;;19.75;;
34805;SDS011;65084;42.196;25.326;2023-02-12T12:06:04;42.45;;;26.33;;
34805;SDS011;65084;42.196;25.326;2023-02-12T12:08:34;28.80;;;17.58;;
34805;SDS011;65084;42.196;25.326;2023-02-12T12:11:03;28.02;;;17.05;;
34805;SDS011;65084;42.196;25.326;2023-02-12T12:13:35;26.10;;;17.27;;
34805;SDS011;65084;42.196;25.326;2023-02-12T12:16:05;23.90;;;15.55;;
34805;SDS011;65084;42.196;25.326;2023-02-12T12:18:53;22.65;;;15.05;;
34805;SDS011;65084;42.196;25.326;2023-02-12T12:21:41;33.67;;;17.92;;
34805;SDS011;65084;42.196;25.326;2023-02-12T12:24:10;35.28;;;21.23;;
34805;SDS011;65084;42.196;25.326;2023-02-12T12:26:39;35.08;;;19.45;;
34805;SDS011;65084;42.196;25.326;2023-02-12T12:29:12;23.88;;;15.68;;
34805;SDS011;65084;42.196;25.326;2023-02-12T12:31:42;26.35;;;14.80;;
34805;SDS011;65084;42.196;25.326;2023-02-12T12:34:10;24.52;;;14.60;;
34805;SDS011;65084;42.196;25.326;2023-02-12T12:36:54;21.58;;;12.88;;
34805;SDS011;65084;42.196;25.326;2023-02-12T12:39:27;22.02;;;12.93;;
34805;SDS011;65084;42.196;25.326;2023-02-12T12:42:06;22.88;;;14.32;;
34805;SDS011;65084;42.196;25.326;2023-02-12T12:44:47;21.20;;;13.63;;
34805;SDS011;65084;42.196;25.326;2023-02-12T12:47:19;22.55;;;14.98;;
34805;SDS011;65084;42.196;25.326;2023-02-12T12:49:57;22.42;;;13.75;;
34805;SDS011;65084;42.196;25.326;2023-02-12T12:55:31;21.55;;;13.18;;
34805;SDS011;65084;42.196;25.326;2023-02-12T12:58:04;21.27;;;13.20;;
34805;SDS011;65084;42.196;25.326;2023-02-12T13:00:55;26.98;;;15.82;;
34805;SDS011;65084;42.196;25.326;2023-02-12T13:03:31;26.35;;;15.00;;
34805;SDS011;65084;42.196;25.326;2023-02-12T13:06:06;23.80;;;14.40;;
34805;SDS011;65084;42.196;25.326;2023-02-12T13:08:38;21.98;;;14.60;;
34805;SDS011;65084;42.196;25.326;2023-02-12T13:11:07;22.13;;;14.20;;
34805;SDS011;65084;42.196;25.326;2023-02-12T13:13:41;18.65;;;10.60;;
34805;SDS011;65084;42.196;25.326;2023-02-12T13:16:12;19.73;;;11.15;;
34805;SDS011;65084;42.196;25.326;2023-02-12T13:18:45;14.55;;;10.85;;
34805;SDS011;65084;42.196;25.326;2023-02-12T13:21:17;17.88;;;11.88;;
34805;SDS011;65084;42.196;25.326;2023-02-12T13:23:48;20.88;;;11.82;;
34805;SDS011;65084;42.196;25.326;2023-02-12T13:26:18;18.67;;;11.38;;
34805;SDS011;65084;42.196;25.326;2023-02-12T13:28:49;17.58;;;11.10;;
34805;SDS011;65084;42.196;25.326;2023-02-12T13:31:21;19.08;;;12.07;;
34805;SDS011;65084;42.196;25.326;2023-02-12T13:33:50;21.42;;;13.25;;
34805;SDS011;65084;42.196;25.326;2023-02-12T13:36:18;25.13;;;14.88;;
34805;SDS011;65084;42.196;25.326;2023-02-12T13:38:47;22.40;;;13.93;;
34805;SDS011;65084;42.196;25.326;2023-02-12T13:41:16;21.83;;;13.20;;
34805;SDS011;65084;42.196;25.326;2023-02-12T13:43:48;23.85;;;13.68;;
34805;SDS011;65084;42.196;25.326;2023-02-12T13:46:24;22.45;;;13.40;;
34805;SDS011;65084;42.196;25.326;2023-02-12T13:48:57;25.40;;;14.32;;
34805;SDS011;65084;42.196;25.326;2023-02-12T13:51:28;25.77;;;15.05;;
34805;SDS011;65084;42.196;25.326;2023-02-12T13:54:03;25.30;;;15.30;;
34805;SDS011;65084;42.196;25.326;2023-02-12T13:56:36;26.10;;;17.15;;
34805;SDS011;65084;42.196;25.326;2023-02-12T14:01:49;20.45;;;14.18;;
34805;SDS011;65084;42.196;25.326;2023-02-12T14:04:27;26.45;;;16.67;;
34805;SDS011;65084;42.196;25.326;2023-02-12T14:06:57;33.60;;;17.80;;
34805;SDS011;65084;42.196;25.326;2023-02-12T14:09:28;28.25;;;16.33;;
34805;SDS011;65084;42.196;25.326;2023-02-12T14:11:56;24.48;;;15.13;;
34805;SDS011;65084;42.196;25.326;2023-02-12T14:14:25;22.10;;;13.32;;
34805;SDS011;65084;42.196;25.326;2023-02-12T14:16:54;15.70;;;11.27;;
34805;SDS011;65084;42.196;25.326;2023-02-12T14:19:38;21.40;;;12.32;;
34805;SDS011;65084;42.196;25.326;2023-02-12T14:22:09;20.25;;;12.00;;
34805;SDS011;65084;42.196;25.326;2023-02-12T14:27:23;24.20;;;13.80;;
34805;SDS011;65084;42.196;25.326;2023-02-12T14:32:57;27.48;;;14.27;;
34805;SDS011;65084;42.196;25.326;2023-02-12T14:35:32;25.83;;;14.05;;
34805;SDS011;65084;42.196;25.326;2023-02-12T14:38:00;24.42;;;14.70;;
34805;SDS011;65084;42.196;25.326;2023-02-12T14:40:40;28.55;;;14.85;;
34805;SDS011;65084;42.196;25.326;2023-02-12T14:43:25;28.40;;;15.32;;